Time;durP1;ratioP1;P1;durP2;ratioP2;P2;SDS_P1;SDS_P2;PMS_P1;PMS_P2;Temp;Humidity;BMP_temperature;BMP_pressure;BME280_temperature;BME280_humidity;BME280_pressure;Samples;Min_cycle;Max_cycle;Signal;HPM_P1;HPM_P2
2023/06/21 00:00:31;;;;;;;60.38;43.33;;;19.60;99.90;;;;;;5084438;28;20048;-62
2023/06/21 00:03:00;;;;;;;57.03;41.50;;;18.80;99.90;;;;;;5066663;28;20398;-62
2023/06/21 00:05:26;;;;;;;49.65;38.67;;;18.70;99.90;;;;;;5061357;28;20040;-62
2023/06/21 00:07:54;;;;;;;66.95;43.00;;;18.80;99.90;;;;;;5055218;28;20050;-62
2023/06/21 00:10:23;;;;;;;57.90;39.72;;;19.70;99.90;;;;;;5085140;28;20028;-62
2023/06/21 00:12:53;;;;;;;62.90;41.60;;;18.70;99.90;;;;;;5068566;28;20040;-62
2023/06/21 00:15:20;;;;;;;64.22;42.22;;;18.40;99.90;;;;;;5085554;28;20036;-62
2023/06/21 00:17:46;;;;;;;57.10;38.80;;;18.80;99.90;;;;;;5064012;28;20040;-62
2023/06/21 00:20:12;;;;;;;62.15;43.20;;;18.70;99.90;;;;;;5061143;28;20482;-61
2023/06/21 00:22:39;;;;;;;60.13;40.05;;;19.30;99.90;;;;;;5077477;28;20497;-62
2023/06/21 00:25:06;;;;;;;56.90;37.70;;;19.30;99.90;;;;;;5082472;28;20040;-62
2023/06/21 00:27:32;;;;;;;49.17;36.10;;;19.70;99.90;;;;;;5068287;28;20427;-62
2023/06/21 00:29:57;;;;;;;53.53;37.33;;;18.60;99.90;;;;;;5078338;28;20040;-62
2023/06/21 00:32:23;;;;;;;56.13;36.85;;;18.80;99.90;;;;;;5078798;28;20040;-64
2023/06/21 00:34:49;;;;;;;53.38;36.33;;;18.60;99.90;;;;;;5089463;28;20441;-62
2023/06/21 00:37:14;;;;;;;57.00;37.83;;;19.30;99.90;;;;;;5058935;28;20035;-62
2023/06/21 00:39:40;;;;;;;56.40;37.20;;;18.40;99.90;;;;;;5081465;28;20040;-62
2023/06/21 00:42:07;;;;;;;52.33;35.83;;;18.80;99.90;;;;;;5074879;28;20035;-62
2023/06/21 00:44:32;;;;;;;46.92;33.28;;;18.50;99.90;;;;;;5064669;28;20040;-62
2023/06/21 00:46:58;;;;;;;48.80;35.25;;;19.00;99.90;;;;;;5079298;28;20102;-62
2023/06/21 00:49:25;;;;;;;44.67;31.90;;;18.50;99.90;;;;;;5088098;28;20054;-61
2023/06/21 00:51:57;;;;;;;43.30;32.63;;;18.20;99.90;;;;;;5056320;28;20036;-61
2023/06/21 00:54:26;;;;;;;43.10;31.00;;;18.10;99.90;;;;;;5081714;28;20371;-62
2023/06/21 00:56:53;;;;;;;46.08;29.95;;;;;;;;;;5080467;28;20082;-62
2023/06/21 00:59:19;;;;;;;41.97;30.02;;;18.80;99.90;;;;;;5072523;28;20098;-61
2023/06/21 01:01:45;;;;;;;42.63;28.58;;;18.20;99.90;;;;;;5079355;28;20044;-61
2023/06/21 01:04:12;;;;;;;42.75;29.55;;;18.30;99.90;;;;;;5078998;28;20097;-61
2023/06/21 01:07:33;;;;;;;39.42;31.00;;;19.10;99.90;;;;;;5085916;28;20036;-61
2023/06/21 01:10:31;;;;;;;46.20;29.40;;;;;;;;;;4979760;28;20607;-61
2023/06/21 01:12:59;;;;;;;49.42;32.45;;;18.40;99.90;;;;;;5054420;28;20117;-61
2023/06/21 01:15:29;;;;;;;40.08;28.48;;;18.50;99.90;;;;;;5065581;28;20597;-60
2023/06/21 01:17:59;;;;;;;46.15;31.40;;;18.10;99.90;;;;;;5077146;28;20230;-61
2023/06/21 01:20:29;;;;;;;39.90;29.48;;;;;;;;;;5086077;28;20044;-60
2023/06/21 01:22:55;;;;;;;43.90;32.00;;;17.90;99.90;;;;;;5069721;28;20088;-61
2023/06/21 01:25:45;;;;;;;42.65;31.40;;;18.30;99.90;;;;;;5057569;28;20513;-61
2023/06/21 01:28:45;;;;;;;45.45;32.75;;;18.00;99.90;;;;;;5077737;28;20392;-61
2023/06/21 01:31:16;;;;;;;41.65;31.42;;;18.30;99.90;;;;;;5063658;28;20036;-61
2023/06/21 01:33:42;;;;;;;45.55;32.03;;;;;;;;;;5073146;28;20529;-61
2023/06/21 01:36:12;;;;;;;44.30;31.35;;;;;;;;;;5082461;28;20039;-61
2023/06/21 01:38:37;;;;;;;41.53;29.15;;;18.10;99.90;;;;;;5063770;28;20051;-60
2023/06/21 01:41:03;;;;;;;51.28;33.78;;;18.20;99.90;;;;;;5071103;28;20047;-62
2023/06/21 01:43:31;;;;;;;44.90;30.98;;;;;;;;;;5060194;28;20056;-62
2023/06/21 01:45:59;;;;;;;42.55;29.77;;;18.20;99.90;;;;;;5068868;28;20066;-61
2023/06/21 01:48:25;;;;;;;46.60;33.38;;;18.10;99.90;;;;;;5083489;28;20048;-62
2023/06/21 01:50:52;;;;;;;47.05;31.67;;;18.10;99.90;;;;;;5093474;28;20040;-61
2023/06/21 01:53:19;;;;;;;45.85;31.67;;;;;;;;;;5049755;28;20424;-61
2023/06/21 01:55:49;;;;;;;42.03;30.13;;;;;;;;;;5060992;28;20544;-61
2023/06/21 01:58:16;;;;;;;45.65;32.22;;;;;;;;;;5060282;28;20052;-61
2023/06/21 02:00:42;;;;;;;46.72;32.30;;;18.50;99.90;;;;;;5062938;28;20054;-61
2023/06/21 02:03:13;;;;;;;48.05;33.42;;;18.30;99.90;;;;;;5069002;28;20043;-61
2023/06/21 02:05:41;;;;;;;49.63;29.73;;;18.00;99.90;;;;;;5057969;28;20046;-61
2023/06/21 02:08:15;;;;;;;46.03;30.83;;;18.30;99.90;;;;;;5062416;28;20088;-61
2023/06/21 02:10:46;;;;;;;43.42;30.52;;;18.30;99.90;;;;;;5074884;28;20492;-62
2023/06/21 02:13:13;;;;;;;47.03;29.13;;;;;;;;;;5076985;28;20091;-61
2023/06/21 02:15:41;;;;;;;45.28;31.70;;;18.10;99.90;;;;;;5066662;28;20404;-62
2023/06/21 02:18:08;;;;;;;44.63;29.27;;;18.10;99.90;;;;;;5071266;28;20081;-61
2023/06/21 02:20:33;;;;;;;43.42;27.67;;;18.40;99.90;;;;;;5071169;28;20390;-62
2023/06/21 02:22:59;;;;;;;43.08;28.67;;;18.20;99.90;;;;;;5077497;28;20043;-60
2023/06/21 02:25:26;;;;;;;43.10;28.85;;;;;;;;;;5078624;28;20032;-61
2023/06/21 02:27:51;;;;;;;41.47;29.20;;;18.20;99.90;;;;;;5041794;28;20489;-60
2023/06/21 02:30:17;;;;;;;45.05;27.60;;;18.20;99.90;;;;;;5068690;28;20113;-61
2023/06/21 02:32:43;;;;;;;43.67;28.83;;;;;;;;;;5088223;28;20028;-61
2023/06/21 02:35:09;;;;;;;42.15;27.90;;;18.20;99.90;;;;;;5082814;28;20547;-60
2023/06/21 02:37:36;;;;;;;42.17;27.80;;;;;;;;;;5086110;28;20390;-60
2023/06/21 02:40:19;;;;;;;42.55;28.08;;;18.30;99.90;;;;;;5086779;28;20048;-61
2023/06/21 02:42:47;;;;;;;47.50;30.05;;;18.40;99.90;;;;;;5089921;28;20048;-60
2023/06/21 02:45:13;;;;;;;38.78;25.83;;;18.20;99.90;;;;;;5077446;28;20062;-60
2023/06/21 02:47:38;;;;;;;45.63;26.50;;;18.10;99.90;;;;;;5078881;28;20044;-60
2023/06/21 02:50:05;;;;;;;38.85;27.10;;;17.70;99.90;;;;;;5067416;28;20093;-60
2023/06/21 02:52:31;;;;;;;45.55;27.92;;;;;;;;;;5081755;28;20119;-61
2023/06/21 02:54:58;;;;;;;45.63;27.05;;;18.00;99.90;;;;;;5081809;28;20171;-60
2023/06/21 02:57:23;;;;;;;41.15;25.55;;;18.10;99.90;;;;;;5088035;28;20346;-60
2023/06/21 02:59:49;;;;;;;42.35;26.45;;;17.80;99.90;;;;;;5095089;28;20047;-61
2023/06/21 03:02:16;;;;;;;42.42;27.95;;;18.30;99.90;;;;;;5073879;28;20040;-60
2023/06/21 03:04:43;;;;;;;37.83;25.25;;;17.90;99.90;;;;;;5047788;28;20111;-60
2023/06/21 03:07:08;;;;;;;42.00;25.98;;;18.10;99.90;;;;;;5074685;28;20044;-60
2023/06/21 03:09:34;;;;;;;39.95;25.92;;;18.40;99.90;;;;;;5078506;28;20043;-60
2023/06/21 03:12:08;;;;;;;36.33;23.98;;;18.10;99.90;;;;;;5056210;28;20057;-60
2023/06/21 03:14:37;;;;;;;36.45;24.42;;;17.60;99.90;;;;;;5073555;28;20118;-60
2023/06/21 03:17:04;;;;;;;37.97;24.17;;;18.00;99.90;;;;;;5074443;28;20409;-60
2023/06/21 03:19:30;;;;;;;37.83;24.17;;;17.90;99.90;;;;;;5068067;28;20048;-60
2023/06/21 03:21:56;;;;;;;38.42;25.23;;;18.00;99.90;;;;;;5084998;28;20032;-60
2023/06/21 03:24:21;;;;;;;37.92;24.30;;;18.10;99.90;;;;;;5087957;28;20035;-61
2023/06/21 03:26:47;;;;;;;36.53;25.60;;;18.00;99.90;;;;;;5087999;28;20040;-60
2023/06/21 03:29:13;;;;;;;37.97;24.38;;;18.20;99.90;;;;;;5082912;28;20072;-60
2023/06/21 03:31:38;;;;;;;37.35;23.27;;;17.90;99.90;;;;;;5084001;28;20036;-60
2023/06/21 03:34:04;;;;;;;34.72;22.63;;;17.90;99.90;;;;;;5090595;28;20075;-62
2023/06/21 03:36:29;;;;;;;42.53;23.35;;;18.00;99.90;;;;;;5078557;28;20052;-60
2023/06/21 03:38:55;;;;;;;38.22;23.95;;;18.00;99.90;;;;;;5081873;28;20048;-60
2023/06/21 03:41:21;;;;;;;33.72;21.67;;;;;;;;;;5085836;28;20454;-60
2023/06/21 03:43:47;;;;;;;35.90;22.02;;;18.10;99.90;;;;;;5072933;28;20043;-60
2023/06/21 03:46:12;;;;;;;31.00;19.13;;;18.00;99.90;;;;;;5083619;28;20035;-61
2023/06/21 03:48:38;;;;;;;34.55;20.25;;;17.80;91.60;;;;;;5079871;28;20040;-60
2023/06/21 03:51:04;;;;;;;29.38;18.50;;;;;;;;;;5082528;28;20037;-60
2023/06/21 03:53:30;;;;;;;30.58;20.35;;;18.00;97.20;;;;;;5076648;28;20529;-60
2023/06/21 03:55:56;;;;;;;28.95;19.05;;;18.60;84.00;;;;;;5089130;28;20068;-60
2023/06/21 03:58:22;;;;;;;32.25;19.75;;;;;;;;;;5069387;28;20070;-60
2023/06/21 04:00:48;;;;;;;29.77;19.02;;;;;;;;;;5089233;28;20114;-60
2023/06/21 04:03:13;;;;;;;28.08;17.15;;;17.60;58.00;;;;;;5091869;28;20409;-60
2023/06/21 04:05:39;;;;;;;31.13;17.67;;;17.80;22.80;;;;;;5084805;28;20040;-60
2023/06/21 04:08:04;;;;;;;29.52;18.52;;;18.00;90.30;;;;;;5085579;28;20124;-60
2023/06/21 04:10:30;;;;;;;25.17;17.80;;;18.00;89.70;;;;;;5067327;28;20040;-60
2023/06/21 04:12:56;;;;;;;28.15;17.38;;;18.00;67.90;;;;;;5049853;28;20036;-60
2023/06/21 04:15:22;;;;;;;31.00;18.00;;;;;;;;;;5083523;28;20129;-60
2023/06/21 04:17:49;;;;;;;26.13;16.80;;;;;;;;;;5077343;28;20120;-60
2023/06/21 04:20:15;;;;;;;22.15;16.70;;;17.90;59.60;;;;;;5096171;22;20036;-63
2023/06/21 04:22:42;;;;;;;32.05;16.40;;;17.60;97.50;;;;;;5079667;28;20398;-63
2023/06/21 04:25:09;;;;;;;25.17;18.30;;;18.00;99.90;;;;;;5051929;28;20032;-63
2023/06/21 04:27:34;;;;;;;25.95;16.42;;;18.10;99.90;;;;;;5075965;28;20040;-63
2023/06/21 04:30:00;;;;;;;24.55;15.90;;;18.00;99.30;;;;;;5070807;28;20413;-63
2023/06/21 04:32:31;;;;;;;24.15;15.40;;;18.00;99.90;;;;;;5070425;28;20409;-63
2023/06/21 04:35:00;;;;;;;23.73;16.95;;;17.80;99.90;;;;;;5055931;28;20048;-65
2023/06/21 04:37:28;;;;;;;28.67;16.02;;;17.10;99.90;;;;;;5070516;28;20052;-63
2023/06/21 04:39:54;;;;;;;26.05;15.75;;;17.70;99.90;;;;;;5071537;28;20048;-64
2023/06/21 04:42:20;;;;;;;23.85;15.70;;;17.70;99.90;;;;;;5079532;28;20482;-63
2023/06/21 04:44:49;;;;;;;25.60;14.88;;;17.90;99.90;;;;;;5059937;28;21476;-63
2023/06/21 04:47:16;;;;;;;22.05;14.70;;;17.90;99.90;;;;;;5066672;28;20040;-63
2023/06/21 04:49:41;;;;;;;26.23;15.77;;;18.10;99.90;;;;;;5068932;28;20044;-65
2023/06/21 04:52:09;;;;;;;27.73;16.13;;;17.60;99.90;;;;;;5065585;28;20106;-65
2023/06/21 04:54:36;;;;;;;29.15;16.45;;;17.90;99.90;;;;;;5070620;28;20048;-64
2023/06/21 04:57:03;;;;;;;23.17;16.48;;;17.70;99.90;;;;;;5045384;28;20036;-65
2023/06/21 04:59:30;;;;;;;24.52;15.88;;;17.80;99.90;;;;;;5070970;28;20083;-64
2023/06/21 05:01:56;;;;;;;21.75;16.67;;;17.90;99.90;;;;;;5044326;28;20497;-65
2023/06/21 05:04:21;;;;;;;28.08;17.38;;;17.90;99.90;;;;;;5067499;28;20075;-64
2023/06/21 05:06:47;;;;;;;22.63;16.25;;;19.50;99.90;;;;;;5069288;28;20032;-64
2023/06/21 05:09:13;;;;;;;24.98;15.85;;;17.90;99.90;;;;;;5051208;28;20052;-65
2023/06/21 05:11:38;;;;;;;22.88;15.82;;;19.10;99.90;;;;;;5067419;28;20461;-64
2023/06/21 05:14:04;;;;;;;24.98;15.20;;;18.50;99.90;;;;;;5080671;28;20405;-64
2023/06/21 05:16:30;;;;;;;26.05;15.10;;;17.70;99.90;;;;;;5056340;28;20090;-63
2023/06/21 05:18:56;;;;;;;27.30;16.40;;;18.00;99.90;;;;;;5071154;28;20468;-63
2023/06/21 05:21:21;;;;;;;27.15;18.35;;;17.90;99.90;;;;;;5038677;28;20455;-63
2023/06/21 05:23:47;;;;;;;26.35;17.45;;;18.40;99.90;;;;;;5061026;28;20040;-63
2023/06/21 05:26:12;;;;;;;25.67;17.20;;;18.20;99.90;;;;;;5066955;28;20424;-63
2023/06/21 05:28:38;;;;;;;27.30;18.15;;;17.70;99.90;;;;;;5061886;28;20410;-63
2023/06/21 05:31:04;;;;;;;26.10;17.63;;;17.80;99.90;;;;;;5067957;28;20393;-63
2023/06/21 05:33:29;;;;;;;27.77;18.17;;;18.90;62.80;;;;;;5068731;28;20044;-63
2023/06/21 05:35:55;;;;;;;28.35;19.88;;;16.70;92.20;;;;;;5064400;28;20051;-63
2023/06/21 05:38:20;;;;;;;28.80;19.58;;;18.10;98.20;;;;;;5068831;28;20040;-63
2023/06/21 05:40:46;;;;;;;27.65;18.48;;;17.80;86.80;;;;;;5061680;28;20041;-63
2023/06/21 05:43:12;;;;;;;28.52;20.60;;;17.50;60.60;;;;;;5068926;28;20064;-63
2023/06/21 05:45:40;;;;;;;24.88;17.63;;;18.10;94.70;;;;;;5069443;28;20437;-63
2023/06/21 05:48:06;;;;;;;26.20;16.80;;;18.10;42.10;;;;;;5068016;28;20075;-63
2023/06/21 05:50:32;;;;;;;24.02;17.70;;;18.20;21.00;;;;;;5069816;28;20072;-63
2023/06/21 05:52:58;;;;;;;26.70;17.42;;;18.30;1.10;;;;;;5073495;28;20060;-63
2023/06/21 05:55:24;;;;;;;22.27;15.88;;;18.40;1.00;;;;;;5069001;28;20115;-63
2023/06/21 05:57:50;;;;;;;22.33;15.60;;;19.10;1.00;;;;;;5061402;28;20125;-63
2023/06/21 06:00:16;;;;;;;21.38;14.95;;;18.50;1.00;;;;;;5060924;28;20028;-63
2023/06/21 06:02:42;;;;;;;23.23;14.93;;;18.70;1.00;;;;;;5062450;28;20052;-64
2023/06/21 06:05:09;;;;;;;21.48;13.93;;;19.10;5.20;;;;;;5067806;28;20036;-63
2023/06/21 06:07:34;;;;;;;22.58;13.73;;;18.70;1.00;;;;;;5069500;28;20040;-63
2023/06/21 06:10:00;;;;;;;18.10;13.80;;;18.80;1.00;;;;;;5069280;28;20032;-64
2023/06/21 06:12:26;;;;;;;20.25;13.52;;;18.60;1.00;;;;;;5069300;28;20029;-63
2023/06/21 06:14:52;;;;;;;19.80;13.70;;;18.40;1.00;;;;;;5063013;28;20455;-63
2023/06/21 06:17:18;;;;;;;17.02;11.93;;;16.90;1.00;;;;;;5047879;28;20047;-64
2023/06/21 06:19:44;;;;;;;16.52;11.57;;;18.60;1.00;;;;;;5062094;28;20425;-63
2023/06/21 06:22:09;;;;;;;18.00;12.15;;;18.90;1.00;;;;;;5059011;28;20405;-63
2023/06/21 06:24:35;;;;;;;18.40;11.27;;;19.50;1.00;;;;;;5060969;28;20374;-63
2023/06/21 06:27:01;;;;;;;17.67;11.35;;;19.30;99.90;;;;;;5069122;28;20029;-63
2023/06/21 06:29:26;;;;;;;15.23;10.20;;;19.10;99.90;;;;;;5069114;28;20395;-63
2023/06/21 06:31:52;;;;;;;17.92;11.63;;;18.50;99.90;;;;;;5069470;28;20052;-63
2023/06/21 06:34:18;;;;;;;15.80;11.85;;;18.90;99.90;;;;;;5064656;28;20123;-63
2023/06/21 06:36:44;;;;;;;15.02;11.02;;;18.90;1.00;;;;;;5034512;28;20463;-64
2023/06/21 06:39:10;;;;;;;15.88;11.93;;;18.90;1.00;;;;;;5036008;28;20073;-63
2023/06/21 06:41:36;;;;;;;16.58;11.30;;;18.70;1.00;;;;;;5061850;28;20032;-63
2023/06/21 06:44:01;;;;;;;17.15;11.27;;;18.70;1.00;;;;;;5068853;28;20416;-64
2023/06/21 06:46:27;;;;;;;14.05;10.65;;;18.40;1.00;;;;;;5069393;28;20097;-63
2023/06/21 06:48:53;;;;;;;17.27;10.52;;;18.50;99.90;;;;;;5068785;28;20044;-64
2023/06/21 06:51:18;;;;;;;15.93;10.60;;;18.70;1.00;;;;;;5066556;28;20040;-64
2023/06/21 06:53:44;;;;;;;15.80;10.38;;;18.80;99.90;;;;;;5072807;28;20051;-64
2023/06/21 06:56:09;;;;;;;15.65;9.73;;;19.90;99.90;;;;;;5072719;28;20040;-64
2023/06/21 06:58:35;;;;;;;14.82;10.98;;;18.90;99.90;;;;;;5069244;28;20542;-64
2023/06/21 07:01:05;;;;;;;15.27;10.80;;;18.90;99.90;;;;;;5072384;28;20115;-64
2023/06/21 07:03:32;;;;;;;17.02;10.20;;;19.00;99.90;;;;;;5072265;28;20093;-64
2023/06/21 07:05:58;;;;;;;13.82;10.55;;;19.50;99.90;;;;;;5072092;28;20104;-64
2023/06/21 07:08:24;;;;;;;11.50;8.48;;;19.60;99.90;;;;;;5064443;28;20045;-64
2023/06/21 07:10:50;;;;;;;11.05;8.88;;;18.70;99.90;;;;;;5072511;28;20093;-64
2023/06/21 07:13:17;;;;;;;10.50;8.15;;;19.10;97.40;;;;;;5069297;28;20494;-64
2023/06/21 07:15:43;;;;;;;16.02;9.55;;;18.80;99.90;;;;;;5060930;28;20036;-64
2023/06/21 07:18:08;;;;;;;10.75;7.82;;;19.20;99.90;;;;;;5072649;28;20086;-64
2023/06/21 07:20:34;;;;;;;12.48;8.23;;;19.40;99.90;;;;;;5054140;28;20161;-64
2023/06/21 07:23:00;;;;;;;12.45;7.65;;;19.80;99.90;;;;;;5072065;28;20066;-64
2023/06/21 07:25:26;;;;;;;14.95;8.05;;;19.90;58.70;;;;;;5072139;28;20035;-64
2023/06/21 07:27:52;;;;;;;10.07;6.60;;;19.50;1.00;;;;;;5048630;28;20033;-63
2023/06/21 07:30:19;;;;;;;9.43;6.25;;;19.50;1.00;;;;;;5071877;28;20033;-63
2023/06/21 07:32:46;;;;;;;8.80;6.47;;;19.90;1.00;;;;;;5053891;28;20508;-63
2023/06/21 07:35:13;;;;;;;9.30;6.78;;;19.00;1.00;;;;;;5045011;28;20044;-63
2023/06/21 07:37:38;;;;;;;10.23;6.55;;;19.90;1.00;;;;;;5071702;28;20047;-63
2023/06/21 07:40:05;;;;;;;11.23;6.93;;;19.10;1.00;;;;;;5070866;28;20048;-63
2023/06/21 07:42:31;;;;;;;11.00;8.15;;;19.20;1.00;;;;;;5040085;28;20036;-63
2023/06/21 07:44:56;;;;;;;11.93;7.85;;;19.10;1.00;;;;;;5071557;28;20042;-63
2023/06/21 07:47:22;;;;;;;9.63;6.53;;;19.30;1.00;;;;;;5063912;28;20090;-63
2023/06/21 07:49:48;;;;;;;12.13;6.63;;;19.70;99.90;;;;;;5071217;28;20408;-63
2023/06/21 07:52:14;;;;;;;12.30;6.95;;;19.50;99.90;;;;;;5071523;28;20047;-63
2023/06/21 07:54:41;;;;;;;10.13;6.05;;;19.70;99.90;;;;;;5071289;28;20032;-63
2023/06/21 07:57:07;;;;;;;11.55;6.25;;;20.80;99.90;;;;;;5053759;28;20538;-63
2023/06/21 07:59:32;;;;;;;10.55;6.65;;;20.30;99.90;;;;;;5051593;28;20044;-63
2023/06/21 08:01:58;;;;;;;11.63;6.50;;;20.10;99.90;;;;;;5061058;28;20033;-63
2023/06/21 08:04:24;;;;;;;10.50;6.60;;;20.00;99.90;;;;;;5071136;28;20032;-63
2023/06/21 08:06:49;;;;;;;8.98;6.07;;;19.90;99.90;;;;;;5077367;28;20505;-63
2023/06/21 08:09:15;;;;;;;11.45;6.22;;;19.80;99.90;;;;;;5071135;28;20036;-63
2023/06/21 08:11:41;;;;;;;11.95;6.57;;;20.00;99.90;;;;;;5071937;28;20040;-63
2023/06/21 08:14:07;;;;;;;13.07;6.53;;;19.80;99.90;;;;;;5039161;28;20041;-63
2023/06/21 08:16:32;;;;;;;9.07;5.90;;;20.20;99.90;;;;;;5066817;28;20045;-63
2023/06/21 08:18:58;;;;;;;13.07;6.82;;;20.10;58.80;;;;;;5067024;28;20145;-63
2023/06/21 08:21:24;;;;;;;12.63;6.75;;;20.00;38.50;;;;;;5045145;28;20580;-63
2023/06/21 08:23:49;;;;;;;8.70;6.07;;;20.10;18.30;;;;;;5045829;28;20064;-63
2023/06/21 08:26:15;;;;;;;10.30;6.53;;;20.40;1.00;;;;;;5052979;28;20107;-63
2023/06/21 08:28:41;;;;;;;11.50;6.63;;;19.80;1.00;;;;;;5076814;28;20031;-64
2023/06/21 08:31:06;;;;;;;10.65;6.28;;;20.10;1.00;;;;;;5053508;28;20037;-64
2023/06/21 08:33:32;;;;;;;10.40;6.50;;;20.90;1.00;;;;;;5063073;28;20120;-64
2023/06/21 08:35:58;;;;;;;10.20;6.93;;;20.30;1.00;;;;;;5070619;28;20049;-64
2023/06/21 08:38:23;;;;;;;12.63;7.15;;;20.50;1.00;;;;;;5075435;28;20068;-64
2023/06/21 08:40:50;;;;;;;12.63;6.65;;;20.40;1.00;;;;;;5048117;28;20048;-63
2023/06/21 08:43:15;;;;;;;13.45;7.47;;;20.80;1.00;;;;;;5052404;28;20037;-64
2023/06/21 08:45:41;;;;;;;10.50;6.38;;;20.50;1.00;;;;;;5070521;28;20032;-64
2023/06/21 08:48:08;;;;;;;9.95;7.00;;;20.10;1.00;;;;;;5064841;28;20111;-64
2023/06/21 08:50:38;;;;;;;11.48;7.15;;;20.50;99.90;;;;;;5071018;28;20036;-64
2023/06/21 08:53:06;;;;;;;12.48;6.47;;;20.70;99.90;;;;;;5070041;28;20086;-64
2023/06/21 08:55:35;;;;;;;13.10;7.05;;;20.70;99.90;;;;;;5044724;28;20498;-64
2023/06/21 08:58:06;;;;;;;10.35;6.38;;;21.70;99.90;;;;;;5048061;28;20079;-64
2023/06/21 09:00:41;;;;;;;13.38;7.22;;;20.60;99.90;;;;;;5068404;28;20082;-64
2023/06/21 09:03:13;;;;;;;10.73;6.47;;;21.50;99.90;;;;;;5069728;28;20040;-64
2023/06/21 09:05:52;;;;;;;10.65;6.75;;;21.20;99.90;;;;;;5069782;28;20033;-65
2023/06/21 09:08:19;;;;;;;10.18;6.13;;;20.70;99.90;;;;;;5052024;28;20413;-65
2023/06/21 09:10:48;;;;;;;9.63;5.88;;;21.20;99.90;;;;;;5069859;28;20032;-65
2023/06/21 09:13:14;;;;;;;8.20;5.93;;;20.70;99.90;;;;;;5050684;28;20146;-65
2023/06/21 09:15:41;;;;;;;9.27;6.00;;;20.70;99.90;;;;;;5067228;28;20072;-65
2023/06/21 09:18:07;;;;;;;11.43;7.05;;;21.40;99.90;;;;;;5059255;28;20048;-66
2023/06/21 09:20:33;;;;;;;10.85;5.97;;;20.90;63.40;;;;;;5064851;28;20051;-65
2023/06/21 09:23:00;;;;;;;10.15;5.72;;;20.90;1.00;;;;;;5069974;28;20039;-66
2023/06/21 09:25:27;;;;;;;10.68;7.00;;;21.80;36.60;;;;;;5051268;28;20048;-66
2023/06/21 09:27:53;;;;;;;9.13;6.63;;;22.10;23.10;;;;;;5069382;28;20125;-65
2023/06/21 09:30:20;;;;;;;10.55;6.03;;;22.10;27.30;;;;;;5069413;28;20538;-65
2023/06/21 09:32:46;;;;;;;8.35;5.50;;;22.10;7.70;;;;;;5061144;28;20029;-65
2023/06/21 09:35:16;;;;;;;8.73;5.75;;;21.90;99.90;;;;;;5069267;28;20079;-65
2023/06/21 09:37:42;;;;;;;9.60;6.10;;;21.20;99.90;;;;;;5051696;28;20461;-65
2023/06/21 09:40:08;;;;;;;9.73;6.30;;;21.90;1.00;;;;;;5068992;28;20111;-65
2023/06/21 09:42:40;;;;;;;9.10;6.30;;;21.20;99.90;;;;;;5051429;28;20037;-65
2023/06/21 09:45:10;;;;;;;8.98;6.32;;;21.30;1.00;;;;;;5051358;28;20032;-65
2023/06/21 09:47:36;;;;;;;11.30;7.28;;;22.20;1.00;;;;;;5051757;28;20047;-66
2023/06/21 09:50:07;;;;;;;10.07;5.90;;;22.20;1.00;;;;;;5060973;28;20037;-66
2023/06/21 09:52:34;;;;;;;9.75;6.28;;;23.00;1.00;;;;;;5062284;28;20047;-66
2023/06/21 09:55:00;;;;;;;11.07;7.10;;;22.70;99.90;;;;;;5048103;28;20040;-66
2023/06/21 09:57:32;;;;;;;10.90;7.32;;;22.20;99.90;;;;;;5069511;28;20360;-66
2023/06/21 10:00:05;;;;;;;9.23;5.30;;;22.60;1.00;;;;;;5069410;28;20040;-66
2023/06/21 10:02:38;;;;;;;10.40;7.72;;;22.80;1.00;;;;;;5065153;28;20411;-66
2023/06/21 10:05:05;;;;;;;12.57;6.53;;;23.20;99.90;;;;;;5072621;28;20440;-66
2023/06/21 10:07:30;;;;;;;8.73;5.97;;;22.90;99.90;;;;;;5051130;28;20090;-66
2023/06/21 10:09:56;;;;;;;9.73;4.47;;;22.90;99.90;;;;;;5069469;28;20044;-66
2023/06/21 10:12:22;;;;;;;9.20;5.75;;;22.40;99.90;;;;;;5071128;28;20182;-66
2023/06/21 10:14:50;;;;;;;8.82;5.07;;;22.90;99.90;;;;;;5056621;28;20106;-66
2023/06/21 10:17:17;;;;;;;9.35;5.30;;;22.70;1.00;;;;;;5068866;28;20474;-66
2023/06/21 10:19:44;;;;;;;9.10;5.40;;;23.10;99.90;;;;;;5068736;28;20463;-65
2023/06/21 10:22:14;;;;;;;8.75;5.72;;;23.00;99.90;;;;;;5050447;28;20182;-66
2023/06/21 10:24:49;;;;;;;9.40;6.35;;;23.20;99.90;;;;;;5069754;28;20028;-66
2023/06/21 10:27:16;;;;;;;10.13;7.13;;;23.30;99.90;;;;;;5054954;28;20040;-66
2023/06/21 10:29:43;;;;;;;11.98;8.45;;;24.30;99.90;;;;;;5073220;28;20044;-66
2023/06/21 10:32:10;;;;;;;11.85;8.10;;;23.40;99.90;;;;;;5072529;28;20034;-66
2023/06/21 10:34:58;;;;;;;11.88;7.75;;;23.20;99.90;;;;;;5054479;28;20206;-66
2023/06/21 10:37:51;;;;;;;11.93;7.82;;;23.30;99.90;;;;;;5067830;28;20040;-66
2023/06/21 10:40:18;;;;;;;13.27;7.65;;;23.20;99.90;;;;;;5070568;28;20358;-66
2023/06/21 10:42:45;;;;;;;12.50;8.18;;;23.10;99.90;;;;;;5046274;28;20028;-65
2023/06/21 10:45:12;;;;;;;11.93;7.93;;;23.50;99.90;;;;;;5071976;28;20033;-66
2023/06/21 10:47:40;;;;;;;12.43;9.82;;;22.90;99.90;;;;;;5066896;28;20044;-66
2023/06/21 10:50:07;;;;;;;13.57;10.82;;;23.00;63.30;;;;;;5073028;28;20078;-66
2023/06/21 10:52:33;;;;;;;13.07;10.18;;;24.00;70.90;;;;;;5055349;28;20552;-66
2023/06/21 10:55:01;;;;;;;13.63;9.68;;;24.50;99.90;;;;;;5051630;28;20040;-67
2023/06/21 10:57:28;;;;;;;14.20;9.98;;;23.70;43.70;;;;;;5070154;28;20047;-67
2023/06/21 11:00:02;;;;;;;13.32;10.10;;;24.10;1.00;;;;;;5063362;28;20159;-67
2023/06/21 11:02:28;;;;;;;15.18;11.68;;;24.00;1.00;;;;;;5054233;28;20097;-67
2023/06/21 11:05:25;;;;;;;15.73;12.13;;;23.90;1.00;;;;;;5072433;28;20033;-67
2023/06/21 11:08:09;;;;;;;14.38;11.25;;;23.40;1.00;;;;;;5048652;28;20089;-67
2023/06/21 11:10:49;;;;;;;16.52;13.63;;;23.60;1.00;;;;;;5072595;28;20489;-67
2023/06/21 11:13:35;;;;;;;17.77;14.38;;;24.60;1.00;;;;;;5072192;28;20040;-67
2023/06/21 11:16:11;;;;;;;15.95;13.30;;;23.60;1.00;;;;;;5072067;28;20466;-67
2023/06/21 11:18:37;;;;;;;16.85;11.70;;;23.60;1.00;;;;;;5061634;28;20482;-67
2023/06/21 11:21:05;;;;;;;16.65;12.95;;;23.70;1.00;;;;;;5053607;28;20139;-67
2023/06/21 11:23:46;;;;;;;12.98;10.90;;;24.50;1.00;;;;;;5053936;28;20127;-67
2023/06/21 11:26:16;;;;;;;13.50;11.32;;;24.30;1.00;;;;;;5046148;28;20410;-67
2023/06/21 11:28:48;;;;;;;13.80;12.02;;;23.70;1.00;;;;;;5072811;28;20032;-67
2023/06/21 11:31:18;;;;;;;12.45;10.30;;;23.90;1.00;;;;;;5054686;28;20033;-67
2023/06/21 11:33:55;;;;;;;13.65;11.02;;;24.90;1.00;;;;;;5052716;28;20051;-67
2023/06/21 11:36:29;;;;;;;15.40;11.52;;;25.00;99.90;;;;;;5052201;28;20068;-67
2023/06/21 11:39:04;;;;;;;10.55;8.30;;;24.20;1.00;;;;;;5072635;28;20037;-66
2023/06/21 11:41:32;;;;;;;9.30;6.13;;;23.90;99.90;;;;;;5071713;28;20032;-67
2023/06/21 11:43:58;;;;;;;11.52;10.00;;;24.00;99.90;;;;;;5072074;28;20210;-67
2023/06/21 11:46:27;;;;;;;11.00;7.43;;;24.20;99.90;;;;;;5053766;28;20037;-67
2023/06/21 11:48:59;;;;;;;9.85;6.80;;;24.50;99.90;;;;;;5050130;28;20407;-66
2023/06/21 11:51:27;;;;;;;13.23;9.85;;;24.80;99.90;;;;;;5072014;28;20093;-67
2023/06/21 11:53:55;;;;;;;14.07;10.95;;;25.10;99.90;;;;;;5054309;28;20036;-67
2023/06/21 11:56:21;;;;;;;15.75;13.20;;;24.60;99.90;;;;;;5052997;28;20405;-67
2023/06/21 11:58:48;;;;;;;15.60;12.68;;;24.00;1.00;;;;;;5065407;28;20041;-67
2023/06/21 12:01:14;;;;;;;16.17;14.05;;;24.90;69.30;;;;;;5071938;28;20036;-67
2023/06/21 12:03:40;;;;;;;17.88;14.88;;;24.00;58.70;;;;;;5071887;28;20036;-67
2023/06/21 12:06:06;;;;;;;18.35;13.63;;;24.10;99.90;;;;;;5053247;28;20051;-67
2023/06/21 12:08:36;;;;;;;18.63;14.43;;;24.40;99.90;;;;;;5053826;28;20079;-67
2023/06/21 12:11:07;;;;;;;15.93;13.75;;;24.10;99.90;;;;;;5053675;28;20114;-66
2023/06/21 12:13:34;;;;;;;16.70;14.38;;;24.50;99.90;;;;;;5042131;28;20063;-67
2023/06/21 12:16:05;;;;;;;21.42;14.55;;;25.10;99.90;;;;;;5071556;28;20233;-67
2023/06/21 12:18:33;;;;;;;16.38;12.80;;;25.40;99.90;;;;;;5071066;28;20041;-67
2023/06/21 12:21:01;;;;;;;18.27;12.85;;;25.60;99.90;;;;;;5071644;28;20032;-67
2023/06/21 12:23:31;;;;;;;17.88;13.88;;;24.50;99.90;;;;;;5031810;28;20426;-66
2023/06/21 12:26:03;;;;;;;15.27;12.13;;;25.20;99.90;;;;;;5053629;28;20410;-66
2023/06/21 12:28:31;;;;;;;16.40;12.95;;;25.50;15.50;;;;;;5045086;28;20051;-67
2023/06/21 12:30:58;;;;;;;17.02;14.35;;;24.90;1.00;;;;;;5053678;28;20051;-67
2023/06/21 12:33:26;;;;;;;19.15;13.80;;;25.60;1.00;;;;;;5052778;28;20032;-66
2023/06/21 12:35:53;;;;;;;17.35;13.52;;;25.80;20.70;;;;;;5049290;28;20037;-67
2023/06/21 12:38:19;;;;;;;16.00;12.95;;;25.00;1.00;;;;;;5052522;28;20040;-67
2023/06/21 12:40:51;;;;;;;15.43;11.68;;;25.90;1.00;;;;;;5044238;28;20438;-66
2023/06/21 12:43:37;;;;;;;14.15;10.40;;;27.90;99.90;;;;;;5067044;28;20400;-67